Terminal Aerodrome Forecast
Issued by NWS

Home | Current Version | Previous Version | Text Only | Print | Product List | Glossary On
Versions: 1 2 3 4 5 6 7
000
FTUS42 TJSJ 282300
TAFIST
TAF
TIST 282324Z 2900/2924 06008KT P6SM FEW025
     FM291300 05012KT P6SM SCT025 SCT035 SCT045
     FM292300 07008KT P6SM SCT025 SCT045 BKN060=

USA.gov is the U.S. government's official web portal to all federal, state and local government web resources and services.